Time;durP1;ratioP1;P1;durP2;ratioP2;P2;SDS_P1;SDS_P2;PMS_P1;PMS_P2;Temp;Humidity;BMP_temperature;BMP_pressure;BME280_temperature;BME280_humidity;BME280_pressure;Samples;Min_cycle;Max_cycle;Signal;HPM_P1;HPM_P2
2021/09/22 00:01:52;;;;;;;10.00;9.00;;;;;;;;;;6381385;22;20378;-73
2021/09/22 00:04:18;;;;;;;9.23;8.33;;;;;;;;;;6381312;22;20356;-73
2021/09/22 00:06:44;;;;;;;10.03;8.07;;;;;;;;;;6343166;22;20429;-74
2021/09/22 00:09:10;;;;;;;10.00;8.80;;;;;;;;;;6371039;22;20712;-73
2021/09/22 00:11:36;;;;;;;13.77;9.13;;;;;;;;;;6380925;22;20370;-73
2021/09/22 00:14:02;;;;;;;10.97;8.07;;;;;;;;;;6381111;22;20366;-74
2021/09/22 00:16:29;;;;;;;9.97;8.97;;;;;;;;;;6381000;22;20507;-73
2021/09/22 00:18:55;;;;;;;9.90;8.90;;;;;;;;;;6370351;22;20856;-74
2021/09/22 00:21:21;;;;;;;10.50;9.07;;;;;;;;;;6370543;22;20383;-74
2021/09/22 00:23:47;;;;;;;9.33;8.30;;;;;;;;;;6381017;22;20391;-73
2021/09/22 00:26:13;;;;;;;9.63;8.13;;;;;;;;;;6370514;22;20379;-73
2021/09/22 00:31:43;;;;;;;11.43;7.90;;;;;;;;;;6381118;22;20397;-73
2021/09/22 00:34:09;;;;;;;11.13;9.10;;;;;;;;;;6342456;22;20420;-73
2021/09/22 00:36:35;;;;;;;10.20;8.67;;;;;;;;;;6380919;22;20433;-73
2021/09/22 00:39:01;;;;;;;9.30;8.40;;;;;;;;;;6380811;22;20489;-73
2021/09/22 00:41:27;;;;;;;11.20;8.10;;;;;;;;;;6370062;22;20379;-73
2021/09/22 00:46:57;;;;;;;9.77;8.77;;;;;;;;;;6380583;22;20741;-72
2021/09/22 00:49:23;;;;;;;9.80;8.30;;;;;;;;;;6380605;22;20500;-73
2021/09/22 00:51:49;;;;;;;10.30;9.30;;;;;;;;;;6380651;22;20360;-73
2021/09/22 00:54:15;;;;;;;9.60;8.70;;;;;;;;;;6380645;22;20378;-73
2021/09/22 00:56:42;;;;;;;10.53;9.43;;;;;;;;;;6370487;22;20714;-73
2021/09/22 01:02:11;;;;;;;14.97;9.60;;;;;;;;;;6380926;22;20431;-73
2021/09/22 01:04:40;;;;;;;8.83;7.90;;;;;;;;;;6380720;22;20385;-73
2021/09/22 01:07:07;;;;;;;10.30;9.00;;;;;;;;;;6380644;22;20360;-73
2021/09/22 01:09:33;;;;;;;9.40;7.67;;;;;;;;;;6370466;22;20459;-73
2021/09/22 01:11:59;;;;;;;11.00;8.07;;;;;;;;;;6370342;22;20382;-73
2021/09/22 01:14:26;;;;;;;11.13;8.93;;;;;;;;;;6380521;22;20366;-72
2021/09/22 01:16:52;;;;;;;11.00;8.80;;;;;;;;;;6380565;22;20426;-73
2021/09/22 01:19:20;;;;;;;10.07;9.07;;;;;;;;;;6370348;22;20466;-72
2021/09/22 01:21:48;;;;;;;10.23;8.40;;;;;;;;;;6380448;22;20394;-72
2021/09/22 01:24:15;;;;;;;9.53;8.50;;;;;;;;;;6380293;22;20394;-73
2021/09/22 01:26:40;;;;;;;11.60;9.63;;;;;;;;;;6369644;22;20432;-73
2021/09/22 01:32:11;;;;;;;10.40;9.30;;;;;;;;;;6380674;22;20369;-73
2021/09/22 01:34:37;;;;;;;10.23;9.23;;;;;;;;;;6370401;22;20720;-73
2021/09/22 01:37:03;;;;;;;11.90;9.13;;;;;;;;;;6380442;22;20453;-73
2021/09/22 01:39:42;;;;;;;11.80;9.90;;;;;;;;;;6380694;22;20371;-73
2021/09/22 01:42:08;;;;;;;10.93;9.80;;;;;;;;;;6380277;22;20367;-72
2021/09/22 01:47:38;;;;;;;9.73;8.73;;;;;;;;;;6380490;22;20387;-72
2021/09/22 01:50:06;;;;;;;12.00;10.07;;;;;;;;;;6380457;22;20370;-73
2021/09/22 01:52:33;;;;;;;11.70;10.50;;;;;;;;;;6380351;22;20767;-73
2021/09/22 01:54:59;;;;;;;9.90;9.00;;;;;;;;;;6380599;22;20377;-73
2021/09/22 01:57:25;;;;;;;11.27;10.10;;;;;;;;;;6380139;22;20425;-73
2021/09/22 01:59:51;;;;;;;12.70;9.10;;;;;;;;;;6341899;22;20396;-73
2021/09/22 02:02:17;;;;;;;11.47;9.67;;;;;;;;;;6380418;22;20379;-73
2021/09/22 02:04:43;;;;;;;12.33;9.97;;;;;;;;;;6341926;22;20394;-73
2021/09/22 02:07:09;;;;;;;10.20;9.20;;;;;;;;;;6380469;22;20458;-73
2021/09/22 02:09:35;;;;;;;11.40;9.50;;;;;;;;;;6370211;22;20694;-72
2021/09/22 02:12:01;;;;;;;12.07;9.93;;;;;;;;;;6341721;22;20473;-73
2021/09/22 02:17:31;;;;;;;10.67;9.57;;;;;;;;;;6380381;22;20824;-73
2021/09/22 02:19:57;;;;;;;12.43;9.87;;;;;;;;;;6370061;22;20664;-74
2021/09/22 02:22:23;;;;;;;10.50;9.40;;;;;;;;;;6382177;22;20385;-74
2021/09/22 02:24:49;;;;;;;13.23;10.37;;;;;;;;;;6381847;22;20370;-72
2021/09/22 02:27:18;;;;;;;11.50;10.30;;;;;;;;;;6381726;22;20472;-73
2021/09/22 02:32:47;;;;;;;12.20;9.80;;;;;;;;;;6382311;22;20380;-73
2021/09/22 02:35:13;;;;;;;12.27;10.70;;;;;;;;;;6382198;22;20370;-74
2021/09/22 02:37:40;;;;;;;12.23;11.07;;;;;;;;;;6382038;22;20426;-73
2021/09/22 02:40:08;;;;;;;13.90;11.90;;;;;;;;;;6371832;22;20695;-74
2021/09/22 02:42:34;;;;;;;16.03;12.50;;;;;;;;;;6371528;22;20382;-73
2021/09/22 02:48:04;;;;;;;14.00;10.87;;;;;;;;;;6382046;22;20425;-73
2021/09/22 02:50:30;;;;;;;14.33;11.17;;;;;;;;;;6371327;22;20842;-73
2021/09/22 02:52:56;;;;;;;11.97;10.43;;;;;;;;;;6381975;22;20370;-73
2021/09/22 02:55:22;;;;;;;17.47;12.57;;;;;;;;;;6371688;22;20374;-73
2021/09/22 02:57:48;;;;;;;12.57;10.83;;;;;;;;;;6381597;22;20912;-72
2021/09/22 03:00:14;;;;;;;13.17;9.90;;;;;;;;;;6381993;22;20423;-73
2021/09/22 03:02:40;;;;;;;13.77;11.40;;;;;;;;;;6371585;22;20503;-73
2021/09/22 03:05:07;;;;;;;12.20;10.50;;;;;;;;;;6371608;22;20373;-73
2021/09/22 03:07:33;;;;;;;13.60;11.60;;;;;;;;;;6371510;22;20465;-73
2021/09/22 03:09:59;;;;;;;12.20;10.30;;;;;;;;;;6371316;22;20770;-73
2021/09/22 03:12:25;;;;;;;13.63;10.90;;;;;;;;;;6371353;22;20379;-73
2021/09/22 03:17:55;;;;;;;11.50;10.20;;;;;;;;;;6381758;22;20442;-73
2021/09/22 03:20:21;;;;;;;12.97;10.20;;;;;;;;;;6371126;22;20790;-73
2021/09/22 03:22:47;;;;;;;16.80;11.40;;;;;;;;;;6381671;22;20386;-73
2021/09/22 03:25:13;;;;;;;12.80;10.77;;;;;;;;;;6381758;22;20388;-73
2021/09/22 03:27:39;;;;;;;13.30;10.47;;;;;;;;;;6380780;22;20482;-73
2021/09/22 03:33:09;;;;;;;14.27;10.37;;;;;;;;;;6381531;22;20369;-72
2021/09/22 03:35:35;;;;;;;15.73;11.13;;;;;;;;;;6381394;22;20763;-73
2021/09/22 03:38:01;;;;;;;10.17;9.10;;;;;;;;;;6381392;22;20406;-73
2021/09/22 03:40:27;;;;;;;14.50;10.90;;;;;;;;;;6371204;22;20413;-73
2021/09/22 03:42:53;;;;;;;13.33;10.10;;;;;;;;;;6370953;22;20680;-73
2021/09/22 03:48:22;;;;;;;15.03;10.77;;;;;;;;;;6381411;22;20419;-73
2021/09/22 03:50:49;;;;;;;13.27;11.87;;;;;;;;;;6381412;22;20774;-73
2021/09/22 03:53:19;;;;;;;13.27;10.70;;;;;;;;;;6381282;22;20402;-73
2021/09/22 03:55:45;;;;;;;12.00;10.30;;;;;;;;;;6370854;22;20383;-73
2021/09/22 03:58:11;;;;;;;12.80;10.60;;;;;;;;;;6381230;22;20367;-72
2021/09/22 04:00:37;;;;;;;16.67;11.70;;;;;;;;;;6381266;22;20365;-74
2021/09/22 04:03:03;;;;;;;16.77;11.80;;;;;;;;;;6370860;22;20474;-72
2021/09/22 04:05:29;;;;;;;12.00;10.50;;;;;;;;;;6370515;22;20417;-73
2021/09/22 04:07:55;;;;;;;12.97;11.10;;;;;;;;;;6381031;22;20380;-73
2021/09/22 04:10:21;;;;;;;13.63;11.20;;;;;;;;;;6381095;22;20366;-72
2021/09/22 04:12:47;;;;;;;10.93;9.83;;;;;;;;;;6380739;22;20454;-72
2021/09/22 04:18:16;;;;;;;18.33;12.07;;;;;;;;;;6381122;22;20386;-73
2021/09/22 04:20:42;;;;;;;13.20;10.67;;;;;;;;;;6380802;22;20382;-72
2021/09/22 04:23:08;;;;;;;14.43;11.90;;;;;;;;;;6381084;22;20788;-73
2021/09/22 04:25:34;;;;;;;13.93;11.57;;;;;;;;;;6342687;22;20421;-73
2021/09/22 04:28:01;;;;;;;14.80;11.90;;;;;;;;;;6370122;22;20845;-73
2021/09/22 04:33:30;;;;;;;15.57;11.77;;;;;;;;;;6380943;22;20444;-72
2021/09/22 04:35:56;;;;;;;19.90;12.27;;;;;;;;;;6380710;22;20412;-73
2021/09/22 04:38:23;;;;;;;14.43;11.10;;;;;;;;;;6370669;22;20713;-73
2021/09/22 04:40:49;;;;;;;14.33;11.63;;;;;;;;;;6380701;22;20363;-73
2021/09/22 04:43:15;;;;;;;15.20;11.43;;;;;;;;;;6380580;22;20750;-73
2021/09/22 04:48:44;;;;;;;17.67;11.43;;;;;;;;;;6380784;22;20384;-73
2021/09/22 04:51:10;;;;;;;12.37;11.07;;;;;;;;;;6380701;22;20457;-74
2021/09/22 04:53:36;;;;;;;11.30;10.10;;;;;;;;;;6370308;22;20366;-72
2021/09/22 04:56:02;;;;;;;13.50;11.40;;;;;;;;;;6369846;22;20895;-73
2021/09/22 04:58:28;;;;;;;14.23;10.80;;;;;;;;;;6380682;22;20379;-73
2021/09/22 05:03:58;;;;;;;13.40;10.60;;;;;;;;;;6380842;22;20461;-73
2021/09/22 05:06:24;;;;;;;17.90;11.27;;;;;;;;;;6380735;22;20363;-73
2021/09/22 05:08:50;;;;;;;15.83;11.50;;;;;;;;;;6380811;22;20626;-73
2021/09/22 05:11:16;;;;;;;17.60;12.50;;;;;;;;;;6342356;22;20394;-72
2021/09/22 05:13:42;;;;;;;13.60;10.50;;;;;;;;;;6370298;22;20698;-73
2021/09/22 05:19:11;;;;;;;14.57;11.43;;;;;;;;;;6380683;22;20716;-74
2021/09/22 05:21:38;;;;;;;13.90;11.43;;;;;;;;;;6380598;22;20370;-73
2021/09/22 05:24:04;;;;;;;15.87;11.90;;;;;;;;;;6342102;22;20383;-73
2021/09/22 05:26:30;;;;;;;16.73;11.63;;;;;;;;;;6380245;22;20374;-73
2021/09/22 05:28:56;;;;;;;12.53;10.70;;;;;;;;;;6379896;22;20377;-73
2021/09/22 05:31:22;;;;;;;16.23;11.57;;;;;;;;;;6380318;22;20476;-73
2021/09/22 05:33:48;;;;;;;15.53;10.90;;;;;;;;;;6370219;22;20369;-72
2021/09/22 05:36:14;;;;;;;15.10;11.30;;;;;;;;;;6380231;22;20432;-73
2021/09/22 05:38:40;;;;;;;13.20;10.00;;;;;;;;;;6380381;22;20377;-72
2021/09/22 05:41:06;;;;;;;19.67;11.80;;;;;;;;;;6380176;22;20374;-73
2021/09/22 05:43:31;;;;;;;15.97;11.20;;;;;;;;;;6380437;22;20441;-73
2021/09/22 05:49:01;;;;;;;14.40;11.63;;;;;;;;;;6380639;22;20404;-72
2021/09/22 05:51:27;;;;;;;18.00;12.00;;;;;;;;;;6380403;22;20365;-72
2021/09/22 05:53:53;;;;;;;14.70;10.70;;;;;;;;;;6380327;22;20412;-72
2021/09/22 05:56:19;;;;;;;16.30;11.20;;;;;;;;;;6381360;22;20419;-73
2021/09/22 05:58:45;;;;;;;14.50;10.80;;;;;;;;;;6382484;22;20381;-73
2021/09/22 06:04:14;;;;;;;15.53;11.83;;;;;;;;;;6381704;22;20405;-72
2021/09/22 06:06:40;;;;;;;23.63;13.60;;;;;;;;;;6343617;22;20389;-73
2021/09/22 06:09:06;;;;;;;21.67;11.90;;;;;;;;;;6382145;22;20369;-73
2021/09/22 06:11:32;;;;;;;18.03;12.20;;;;;;;;;;6371590;22;20680;-73
2021/09/22 06:13:58;;;;;;;16.83;12.77;;;;;;;;;;6381856;22;20374;-72
2021/09/22 06:19:28;;;;;;;15.23;11.70;;;;;;;;;;6381942;22;20372;-70
2021/09/22 06:21:54;;;;;;;15.77;11.57;;;;;;;;;;6371611;22;20765;-73
2021/09/22 06:24:20;;;;;;;20.10;13.03;;;;;;;;;;6381889;22;20423;-73
2021/09/22 06:26:49;;;;;;;17.13;12.20;;;;;;;;;;6381559;22;20425;-73
2021/09/22 06:29:15;;;;;;;15.30;12.10;;;;;;;;;;6381695;22;20844;-73
2021/09/22 06:34:44;;;;;;;19.40;11.60;;;;;;;;;;6381841;22;20376;-74
2021/09/22 06:37:12;;;;;;;20.20;12.97;;;;;;;;;;6371528;22;20434;-73
2021/09/22 06:39:38;;;;;;;29.80;12.63;;;;;;;;;;6371619;22;20397;-73
2021/09/22 06:42:04;;;;;;;15.23;12.47;;;;;;;;;;6381567;22;20375;-73
2021/09/22 06:44:30;;;;;;;18.83;12.60;;;;;;;;;;6371374;22;20744;-73
2021/09/22 06:46:56;;;;;;;20.63;12.97;;;;;;;;;;6381692;22;20367;-73
2021/09/22 06:49:22;;;;;;;14.83;11.80;;;;;;;;;;6381755;22;20439;-73
2021/09/22 06:51:48;;;;;;;17.57;12.70;;;;;;;;;;6381749;22;20359;-73
2021/09/22 06:54:14;;;;;;;16.73;11.73;;;;;;;;;;6381361;22;20355;-72
2021/09/22 06:56:40;;;;;;;16.70;11.03;;;;;;;;;;6380940;22;20753;-73
2021/09/22 06:59:06;;;;;;;17.87;13.27;;;;;;;;;;6381529;22;20359;-73
2021/09/22 07:04:35;;;;;;;21.33;11.93;;;;;;;;;;6381594;22;20413;-74
2021/09/22 07:07:01;;;;;;;18.97;14.50;;;;;;;;;;6381314;22;20363;-74
2021/09/22 07:09:27;;;;;;;16.33;11.70;;;;;;;;;;6381330;22;20632;-74
2021/09/22 07:11:53;;;;;;;17.03;12.93;;;;;;;;;;6381392;22;20371;-73
2021/09/22 07:14:19;;;;;;;16.27;12.20;;;;;;;;;;6381255;22;20730;-74
2021/09/22 07:19:48;;;;;;;19.23;14.80;;;;;;;;;;6381173;22;20444;-74
2021/09/22 07:22:15;;;;;;;23.30;13.53;;;;;;;;;;6381170;22;20374;-74
2021/09/22 07:24:41;;;;;;;18.47;12.40;;;;;;;;;;6370491;22;20396;-74
2021/09/22 07:27:07;;;;;;;21.53;13.47;;;;;;;;;;6370139;22;20454;-73
2021/09/22 07:29:33;;;;;;;20.03;12.57;;;;;;;;;;6370452;22;20888;-74
2021/09/22 07:35:03;;;;;;;15.23;12.60;;;;;;;;;;6381069;22;20366;-73
2021/09/22 07:37:29;;;;;;;24.10;14.00;;;;;;;;;;6370322;22;20495;-74
2021/09/22 07:39:55;;;;;;;17.40;12.57;;;;;;;;;;6370409;22;20375;-72
2021/09/22 07:42:21;;;;;;;24.20;13.03;;;;;;;;;;6370184;22;20367;-76
2021/09/22 07:44:53;;;;;;;20.33;13.97;;;;;;;;;;6370271;22;20366;-72
2021/09/22 07:50:23;;;;;;;20.13;13.20;;;;;;;;;;6380691;22;20381;-73
2021/09/22 07:52:50;;;;;;;22.40;12.80;;;;;;;;;;6370406;22;20392;-73
2021/09/22 07:55:16;;;;;;;34.47;15.03;;;;;;;;;;6338838;22;20722;-73
2021/09/22 07:57:42;;;;;;;21.33;13.73;;;;;;;;;;6370008;22;20423;-75
2021/09/22 08:00:09;;;;;;;15.43;13.00;;;;;;;;;;6370835;22;20351;-76
2021/09/22 08:02:35;;;;;;;15.40;13.13;;;;;;;;;;6370897;22;20370;-73
2021/09/22 08:05:01;;;;;;;15.30;12.70;;;;;;;;;;6381129;22;20379;-73
2021/09/22 08:07:27;;;;;;;16.53;13.40;;;;;;;;;;6368019;22;20683;-73
2021/09/22 08:09:53;;;;;;;16.00;12.30;;;;;;;;;;6368511;22;20416;-73
2021/09/22 08:12:20;;;;;;;15.07;13.23;;;;;;;;;;6378938;22;20387;-73
2021/09/22 08:14:46;;;;;;;15.10;13.60;;;;;;;;;;6369312;22;20541;-71
2021/09/22 08:20:16;;;;;;;22.33;13.10;;;;;;;;;;6379200;22;20416;-72
2021/09/22 08:22:42;;;;;;;19.90;13.63;;;;;;;;;;6379242;22;20372;-72
2021/09/22 08:25:09;;;;;;;27.30;13.80;;;;;;;;;;6368654;22;20367;-72
2021/09/22 08:27:35;;;;;;;24.27;14.27;;;;;;;;;;6368239;22;20422;-72
2021/09/22 08:30:02;;;;;;;24.33;13.93;;;;;;;;;;6368956;22;20819;-74
2021/09/22 08:35:31;;;;;;;17.57;13.70;;;;;;;;;;6379344;22;20460;-71
2021/09/22 08:37:57;;;;;;;19.23;15.17;;;;;;;;;;6368443;22;20509;-73
2021/09/22 08:40:23;;;;;;;16.53;13.17;;;;;;;;;;6379666;22;20675;-72
2021/09/22 08:42:50;;;;;;;18.30;13.27;;;;;;;;;;6368448;22;20430;-71
2021/09/22 08:45:16;;;;;;;17.73;11.87;;;;;;;;;;6368525;22;20360;-73
2021/09/22 08:50:46;;;;;;;18.67;13.83;;;;;;;;;;6379182;22;20823;-71
2021/09/22 08:53:12;;;;;;;15.67;11.50;;;;;;;;;;6379202;22;20367;-73
2021/09/22 08:55:38;;;;;;;13.37;11.00;;;;;;;;;;6368480;22;20687;-72
2021/09/22 08:58:04;;;;;;;13.73;11.03;;;;;;;;;;6367946;22;20470;-73
2021/09/22 09:00:30;;;;;;;15.20;12.00;;;;;;;;;;6379131;22;20729;-73
2021/09/22 09:02:56;;;;;;;13.57;11.83;;;;;;;;;;6368320;22;20391;-73
2021/09/22 09:05:22;;;;;;;14.17;12.73;;;;;;;;;;6368370;22;20397;-72
2021/09/22 09:07:52;;;;;;;14.20;12.13;;;;;;;;;;6378896;22;20482;-73
2021/09/22 09:10:21;;;;;;;15.50;10.90;;;;;;;;;;6368403;22;20646;-71
2021/09/22 09:12:59;;;;;;;11.50;10.23;;;;;;;;;;6378983;22;20741;-72
2021/09/22 09:15:30;;;;;;;10.90;9.90;;;;;;;;;;6379084;22;20448;-72
2021/09/22 09:21:00;;;;;;;10.17;9.27;;;;;;;;;;6378701;22;20419;-71
2021/09/22 09:23:26;;;;;;;11.77;9.40;;;;;;;;;;6379105;22;20371;-72
2021/09/22 09:25:57;;;;;;;11.80;10.43;;;;;;;;;;6368454;22;20424;-73
2021/09/22 09:28:33;;;;;;;10.40;9.40;;;;;;;;;;6340358;22;20436;-73
2021/09/22 09:31:01;;;;;;;9.27;8.37;;;;;;;;;;6379256;22;20670;-73
2021/09/22 09:33:39;;;;;;;11.17;10.00;;;;;;;;;;6379389;22;20458;-73
2021/09/22 09:36:25;;;;;;;11.57;9.20;;;;;;;;;;6368119;22;20413;-73
2021/09/22 09:38:56;;;;;;;9.13;8.23;;;;;;;;;;6379201;22;20391;-72
2021/09/22 09:41:24;;;;;;;11.03;8.80;;;;;;;;;;6379086;22;20877;-72
2021/09/22 09:43:50;;;;;;;8.00;7.13;;;;;;;;;;6379064;22;20371;-70
2021/09/22 09:46:19;;;;;;;8.80;7.07;;;;;;;;;;6368131;22;20366;-71
2021/09/22 09:48:53;;;;;;;10.67;8.90;;;;;;;;;;6378803;22;20830;-71
2021/09/22 09:51:19;;;;;;;9.40;8.17;;;;;;;;;;6340531;22;20379;-72
2021/09/22 09:53:45;;;;;;;13.40;10.13;;;;;;;;;;6379343;22;20451;-72
2021/09/22 09:56:18;;;;;;;9.90;8.43;;;;;;;;;;6379098;22;20752;-72
2021/09/22 09:58:47;;;;;;;8.20;7.40;;;;;;;;;;6368740;22;20368;-72
2021/09/22 10:01:13;;;;;;;7.23;6.37;;;;;;;;;;6379574;22;20447;-72
2021/09/22 10:03:39;;;;;;;8.30;6.60;;;;;;;;;;6368781;22;20775;-73
2021/09/22 10:06:06;;;;;;;6.73;6.13;;;;;;;;;;6368664;22;20363;-73
2021/09/22 10:08:32;;;;;;;7.43;6.83;;;;;;;;;;6368578;22;20360;-73
2021/09/22 10:11:03;;;;;;;9.93;6.73;;;;;;;;;;6368459;22;20438;-72
2021/09/22 10:13:29;;;;;;;8.97;6.50;;;;;;;;;;6379474;22;20424;-72
2021/09/22 10:15:55;;;;;;;7.07;6.43;;;;;;;;;;6367930;22;20545;-73
2021/09/22 10:21:25;;;;;;;10.17;6.77;;;;;;;;;;6379107;22;20370;-73
2021/09/22 10:23:52;;;;;;;8.70;6.40;;;;;;;;;;6368675;22;20417;-73
2021/09/22 10:26:19;;;;;;;7.83;6.40;;;;;;;;;;6368465;22;20446;-74
2021/09/22 10:28:46;;;;;;;6.30;5.70;;;;;;;;;;6364824;22;20476;-73
2021/09/22 10:37:32;;;;;;;6.67;5.97;;;;;;;;;;6378846;22;20429;-73
2021/09/22 10:39:58;;;;;;;5.03;4.53;;;;;;;;;;6368333;22;20806;-72
2021/09/22 10:42:29;;;;;;;9.07;4.50;;;;;;;;;;6380423;22;20383;-72
2021/09/22 10:45:12;;;;;;;5.40;4.43;;;;;;;;;;6381434;22;20686;-72
2021/09/22 10:47:38;;;;;;;4.40;3.67;;;;;;;;;;6379891;22;20383;-72
2021/09/22 10:50:05;;;;;;;4.47;3.67;;;;;;;;;;6370562;22;20455;-73
2021/09/22 10:52:35;;;;;;;4.60;4.23;;;;;;;;;;6370757;22;20367;-72
2021/09/22 10:55:09;;;;;;;3.63;3.33;;;;;;;;;;6382107;22;20387;-73
2021/09/22 10:57:36;;;;;;;5.10;4.00;;;;;;;;;;6381722;22;20723;-72
2021/09/22 11:00:12;;;;;;;5.30;4.80;;;;;;;;;;6343170;22;20889;-72
2021/09/22 11:02:48;;;;;;;5.00;4.50;;;;;;;;;;6381607;22;20379;-71
2021/09/22 11:05:15;;;;;;;4.23;3.90;;;;;;;;;;6379128;22;20849;-72
2021/09/22 11:07:53;;;;;;;4.40;4.10;;;;;;;;;;6380217;22;20402;-72
2021/09/22 11:10:34;;;;;;;5.07;4.67;;;;;;;;;;6369668;22;20879;-71
2021/09/22 11:13:19;;;;;;;4.30;3.90;;;;;;;;;;6369782;22;20385;-72
2021/09/22 11:15:49;;;;;;;4.73;4.23;;;;;;;;;;6380558;22;20745;-71
2021/09/22 11:18:15;;;;;;;5.00;4.60;;;;;;;;;;6380752;22;20748;-73
2021/09/22 11:20:41;;;;;;;5.13;4.40;;;;;;;;;;6380791;22;20379;-72
2021/09/22 11:23:11;;;;;;;4.70;4.17;;;;;;;;;;6369720;22;20424;-72
2021/09/22 11:25:38;;;;;;;5.07;4.67;;;;;;;;;;6370164;22;20366;-72
2021/09/22 11:28:04;;;;;;;5.63;5.13;;;;;;;;;;6372931;22;20752;-73
2021/09/22 11:30:31;;;;;;;6.27;4.57;;;;;;;;;;6380630;22;20379;-75
2021/09/22 11:32:57;;;;;;;5.57;5.07;;;;;;;;;;6380207;22;20380;-70
2021/09/22 11:35:23;;;;;;;6.27;4.20;;;;;;;;;;6369958;22;20416;-70
2021/09/22 11:37:53;;;;;;;5.07;4.67;;;;;;;;;;6369675;22;20423;-70
2021/09/22 11:40:32;;;;;;;5.23;4.40;;;;;;;;;;6341862;22;20387;-70
2021/09/22 11:43:05;;;;;;;4.13;3.83;;;;;;;;;;6380448;22;20371;-72
2021/09/22 11:45:36;;;;;;;4.63;3.67;;;;;;;;;;6369745;22;20363;-73
2021/09/22 11:48:02;;;;;;;4.70;4.30;;;;;;;;;;6369795;22;20371;-74
2021/09/22 11:50:31;;;;;;;4.67;4.27;;;;;;;;;;6369505;22;20838;-69
2021/09/22 11:52:57;;;;;;;5.70;4.03;;;;;;;;;;6379923;22;20375;-73
2021/09/22 11:55:23;;;;;;;4.80;4.40;;;;;;;;;;6368680;22;20371;-74
2021/09/22 11:57:49;;;;;;;4.37;4.07;;;;;;;;;;6369305;22;20422;-74
2021/09/22 12:00:17;;;;;;;5.30;4.00;;;;;;;;;;6369446;22;20462;-72
2021/09/22 12:02:43;;;;;;;5.03;4.53;;;;;;;;;;6369651;22;20380;-74
2021/09/22 12:05:13;;;;;;;3.97;3.67;;;;;;;;;;6369521;22;20407;-71
2021/09/22 12:07:39;;;;;;;4.27;3.87;;;;;;;;;;6369545;22;20446;-75
2021/09/22 12:10:05;;;;;;;4.30;3.90;;;;;;;;;;6369650;22;20359;-75
2021/09/22 12:12:32;;;;;;;4.80;3.97;;;;;;;;;;6379763;22;20417;-72
2021/09/22 12:14:58;;;;;;;3.93;3.63;;;;;;;;;;6369126;22;20402;-74
2021/09/22 12:20:29;;;;;;;3.43;3.07;;;;;;;;;;6380082;22;20435;-72
2021/09/22 12:22:57;;;;;;;3.97;3.07;;;;;;;;;;6379581;22;20371;-74
2021/09/22 12:25:23;;;;;;;4.73;3.40;;;;;;;;;;6369240;22;20371;-74
2021/09/22 12:27:50;;;;;;;5.03;3.50;;;;;;;;;;6373536;22;20427;-73
2021/09/22 12:30:16;;;;;;;5.53;4.10;;;;;;;;;;6369417;22;20372;-75
2021/09/22 12:35:46;;;;;;;5.80;3.10;;;;;;;;;;6379680;22;20428;-74
2021/09/22 12:38:16;;;;;;;3.80;2.80;;;;;;;;;;6369308;22;20432;-74
2021/09/22 12:40:44;;;;;;;2.97;2.30;;;;;;;;;;6369297;22;20359;-76
2021/09/22 12:43:24;;;;;;;3.00;2.70;;;;;;;;;;6379376;22;20909;-73
2021/09/22 12:45:51;;;;;;;2.90;2.20;;;;;;;;;;6369265;22;20359;-75
2021/09/22 12:51:24;;;;;;;4.73;2.47;;;;;;;;;;6379731;22;20409;-74
2021/09/22 12:53:50;;;;;;;3.50;3.20;;;;;;;;;;6369249;22;20367;-75
2021/09/22 12:56:17;;;;;;;3.70;2.83;;;;;;;;;;6341061;22;20434;-76
2021/09/22 12:58:44;;;;;;;3.37;3.07;;;;;;;;;;6379525;22;20379;-74
2021/09/22 13:01:14;;;;;;;3.13;2.93;;;;;;;;;;6368646;22;20362;-75
2021/09/22 13:06:50;;;;;;;4.80;2.93;;;;;;;;;;6379433;22;20458;-76
2021/09/22 13:09:16;;;;;;;4.70;3.20;;;;;;;;;;6368948;22;20439;-75
2021/09/22 13:11:42;;;;;;;3.07;2.77;;;;;;;;;;6369120;22;20363;-75
2021/09/22 13:14:14;;;;;;;3.30;2.40;;;;;;;;;;6368878;22;20359;-75
2021/09/22 13:16:57;;;;;;;3.37;2.70;;;;;;;;;;6379630;22;20912;-74
2021/09/22 13:22:26;;;;;;;6.97;3.47;;;;;;;;;;6379470;22;20373;-72
2021/09/22 13:24:52;;;;;;;4.70;2.83;;;;;;;;;;6368898;22;20452;-74
2021/09/22 13:27:20;;;;;;;2.83;2.63;;;;;;;;;;6368581;22;20434;-73
2021/09/22 13:29:46;;;;;;;5.20;3.07;;;;;;;;;;6379410;22;20385;-72
2021/09/22 13:32:12;;;;;;;3.20;3.00;;;;;;;;;;6368814;22;20458;-74
2021/09/22 13:37:41;;;;;;;6.23;2.83;;;;;;;;;;6379110;22;20437;-73
2021/09/22 13:40:08;;;;;;;3.17;2.97;;;;;;;;;;6368771;22;20363;-73
2021/09/22 13:42:34;;;;;;;3.60;3.13;;;;;;;;;;6365292;22;20375;-73
2021/09/22 13:45:00;;;;;;;4.30;2.70;;;;;;;;;;6368657;22;20374;-73
2021/09/22 13:47:26;;;;;;;3.40;2.80;;;;;;;;;;6368649;22;20395;-73
2021/09/22 13:52:55;;;;;;;3.23;2.60;;;;;;;;;;6378769;22;20690;-73
2021/09/22 13:55:21;;;;;;;2.60;2.40;;;;;;;;;;6368366;22;20373;-74
2021/09/22 13:57:47;;;;;;;5.77;3.30;;;;;;;;;;6368210;22;20418;-74
2021/09/22 14:00:13;;;;;;;2.90;2.70;;;;;;;;;;6368059;22;20366;-74
2021/09/22 14:02:39;;;;;;;3.33;2.60;;;;;;;;;;6368100;22;20447;-75
2021/09/22 14:05:06;;;;;;;3.90;3.60;;;;;;;;;;6368075;22;20397;-73
2021/09/22 14:07:32;;;;;;;3.33;3.13;;;;;;;;;;6368551;22;20371;-74
2021/09/22 14:09:58;;;;;;;3.40;3.10;;;;;;;;;;6367922;22;20356;-73
2021/09/22 14:12:24;;;;;;;2.97;2.67;;;;;;;;;;6367765;22;20367;-74
2021/09/22 14:14:50;;;;;;;6.63;3.00;;;;;;;;;;6368208;22;20799;-73
2021/09/22 14:17:16;;;;;;;4.60;2.90;;;;;;;;;;6368913;22;20532;-73
2021/09/22 14:22:45;;;;;;;3.57;3.00;;;;;;;;;;6380654;22;20415;-74
2021/09/22 14:25:11;;;;;;;6.00;3.67;;;;;;;;;;6369886;22;20869;-73
2021/09/22 14:27:37;;;;;;;5.80;3.20;;;;;;;;;;6369625;22;20421;-74
2021/09/22 14:30:04;;;;;;;6.57;3.30;;;;;;;;;;6369947;22;20427;-74
2021/09/22 14:32:31;;;;;;;3.60;2.80;;;;;;;;;;6380782;22;20577;-73
2021/09/22 14:38:01;;;;;;;3.50;3.20;;;;;;;;;;6380464;22;20496;-74
2021/09/22 14:40:28;;;;;;;4.10;2.60;;;;;;;;;;6370049;22;20446;-73
2021/09/22 14:42:54;;;;;;;3.33;3.03;;;;;;;;;;6380245;22;20830;-74
2021/09/22 14:45:21;;;;;;;3.43;3.13;;;;;;;;;;6369961;22;20364;-73
2021/09/22 14:47:48;;;;;;;4.17;2.60;;;;;;;;;;6369752;22;20691;-73
2021/09/22 14:53:17;;;;;;;4.40;3.93;;;;;;;;;;6380551;22;20366;-73
2021/09/22 14:55:43;;;;;;;3.60;3.30;;;;;;;;;;6369775;22;20368;-73
2021/09/22 14:58:09;;;;;;;7.40;4.30;;;;;;;;;;6369680;22;20423;-73
2021/09/22 15:00:35;;;;;;;4.70;3.00;;;;;;;;;;6380679;22;20402;-73
2021/09/22 15:03:01;;;;;;;4.97;3.27;;;;;;;;;;6369703;22;20372;-72
2021/09/22 15:05:29;;;;;;;4.57;3.77;;;;;;;;;;6342306;22;20383;-73
2021/09/22 15:07:56;;;;;;;3.73;2.93;;;;;;;;;;6369950;22;20691;-73
2021/09/22 15:10:22;;;;;;;3.43;3.13;;;;;;;;;;6369481;22;20378;-72
2021/09/22 15:12:48;;;;;;;5.10;3.30;;;;;;;;;;6369575;22;20386;-73
2021/09/22 15:15:15;;;;;;;3.33;3.03;;;;;;;;;;6369691;22;20750;-73
2021/09/22 15:17:41;;;;;;;3.70;3.40;;;;;;;;;;6369470;22;20418;-73
2021/09/22 15:23:11;;;;;;;6.37;4.00;;;;;;;;;;6380119;22;20362;-73
2021/09/22 15:25:36;;;;;;;4.30;3.40;;;;;;;;;;6380172;22;20367;-71
2021/09/22 15:28:02;;;;;;;4.83;3.37;;;;;;;;;;6369025;22;20469;-72
2021/09/22 15:30:30;;;;;;;4.30;3.00;;;;;;;;;;6369229;22;20367;-72
2021/09/22 15:32:56;;;;;;;3.70;3.40;;;;;;;;;;6369386;22;21048;-71
2021/09/22 15:38:26;;;;;;;3.70;2.80;;;;;;;;;;6380204;22;20433;-73
2021/09/22 15:40:51;;;;;;;3.93;3.57;;;;;;;;;;6369170;22;20719;-73
2021/09/22 15:43:18;;;;;;;3.67;3.37;;;;;;;;;;6369334;22;20459;-73
2021/09/22 15:45:44;;;;;;;4.10;3.20;;;;;;;;;;6369374;22;20359;-73
2021/09/22 15:48:12;;;;;;;3.20;2.90;;;;;;;;;;6369401;22;20397;-73
2021/09/22 15:53:42;;;;;;;2.77;2.40;;;;;;;;;;6379970;22;20370;-73
2021/09/22 15:56:08;;;;;;;3.70;2.60;;;;;;;;;;6368834;22;20375;-73
2021/09/22 15:58:34;;;;;;;3.00;2.70;;;;;;;;;;6368870;22;20387;-73
2021/09/22 16:01:01;;;;;;;3.80;2.90;;;;;;;;;;6368942;22;20372;-73
2021/09/22 16:03:27;;;;;;;5.93;3.17;;;;;;;;;;6368923;22;20376;-73
2021/09/22 16:05:54;;;;;;;3.23;2.93;;;;;;;;;;6379474;22;20459;-73
2021/09/22 16:08:21;;;;;;;4.30;4.00;;;;;;;;;;6369073;22;20793;-73
2021/09/22 16:10:47;;;;;;;6.30;3.63;;;;;;;;;;6379921;22;20466;-72
2021/09/22 16:13:13;;;;;;;8.77;3.40;;;;;;;;;;6368920;22;20375;-72
2021/09/22 16:15:39;;;;;;;4.83;2.50;;;;;;;;;;6368844;22;20835;-72
2021/09/22 16:18:05;;;;;;;3.40;2.70;;;;;;;;;;6338611;22;20431;-73
2021/09/22 16:23:34;;;;;;;4.53;2.63;;;;;;;;;;6379614;22;20651;-72
2021/09/22 16:26:01;;;;;;;3.23;2.93;;;;;;;;;;6368901;22;20725;-73
2021/09/22 16:28:27;;;;;;;6.40;2.60;;;;;;;;;;6370158;22;20450;-73
2021/09/22 16:30:53;;;;;;;3.10;2.87;;;;;;;;;;6368744;22;20364;-73
2021/09/22 16:33:19;;;;;;;3.30;3.00;;;;;;;;;;6368873;22;20818;-72
2021/09/22 16:38:49;;;;;;;5.33;3.00;;;;;;;;;;6379283;22;20468;-73
2021/09/22 16:41:15;;;;;;;3.10;2.70;;;;;;;;;;6368492;22;20359;-73
2021/09/22 16:43:41;;;;;;;5.33;3.43;;;;;;;;;;6379257;22;20689;-72
2021/09/22 16:46:10;;;;;;;2.67;2.43;;;;;;;;;;6340278;22;20768;-73
2021/09/22 16:48:37;;;;;;;3.90;2.93;;;;;;;;;;6380484;22;20374;-73
2021/09/22 16:54:09;;;;;;;6.90;3.67;;;;;;;;;;6380769;22;20362;-73